createdAt,value
2017-12-23T00:00:58.867Z,20.20
2017-12-23T00:03:27.153Z,21.32
2017-12-23T00:05:55.436Z,24.88
2017-12-23T00:08:23.685Z,21.32
2017-12-23T00:10:51.964Z,22.50
2017-12-23T00:13:20.210Z,23.92
2017-12-23T00:15:48.486Z,22.60
2017-12-23T00:18:16.756Z,23.38
2017-12-23T00:20:44.278Z,25.68
2017-12-23T00:23:12.526Z,23.78
2017-12-23T00:25:40.803Z,23.10
2017-12-23T00:28:09.046Z,25.54
2017-12-23T00:30:37.330Z,23.70
2017-12-23T00:33:05.573Z,25.22
2017-12-23T00:35:33.821Z,24.84
2017-12-23T00:38:02.938Z,23.12
2017-12-23T00:40:34.797Z,25.60
2017-12-23T00:43:04.242Z,25.00
2017-12-23T00:45:33.959Z,24.34
2017-12-23T00:48:02.278Z,27.30
2017-12-23T00:50:31.439Z,29.12
2017-12-23T00:52:59.718Z,24.78
2017-12-23T00:55:27.962Z,25.98
2017-12-23T00:57:56.252Z,24.18
2017-12-23T01:00:24.520Z,25.54
2017-12-23T01:02:52.771Z,25.38
2017-12-23T01:05:21.040Z,27.04
2017-12-23T01:07:49.329Z,24.98
2017-12-23T01:10:17.573Z,25.18
2017-12-23T01:12:45.862Z,23.04
2017-12-23T01:15:14.110Z,23.98
2017-12-23T01:17:42.349Z,23.36
2017-12-23T01:20:10.639Z,21.98
2017-12-23T01:22:38.917Z,21.46
2017-12-23T01:25:07.201Z,22.08
2017-12-23T01:27:35.485Z,23.90
2017-12-23T01:30:03.742Z,21.26
2017-12-23T01:32:33.260Z,22.64
2017-12-23T01:35:02.727Z,19.80
2017-12-23T01:37:30.979Z,21.30
2017-12-23T01:40:00.159Z,21.72
2017-12-23T01:42:28.415Z,18.04
2017-12-23T01:44:56.674Z,17.68
2017-12-23T01:47:24.953Z,17.86
2017-12-23T01:49:53.198Z,17.50
2017-12-23T01:52:21.442Z,19.60
2017-12-23T01:54:49.736Z,19.74
2017-12-23T01:57:17.987Z,17.16
2017-12-23T01:59:46.250Z,17.48
2017-12-23T02:02:14.538Z,17.40
2017-12-23T02:04:42.784Z,18.58
2017-12-23T02:07:11.034Z,15.80
2017-12-23T02:09:39.321Z,18.62
2017-12-23T02:12:07.583Z,15.58
2017-12-23T02:14:35.834Z,13.58
2017-12-23T02:17:04.099Z,15.20
2017-12-23T02:19:32.344Z,13.02
2017-12-23T02:22:00.636Z,15.26
2017-12-23T02:24:28.874Z,14.98
2017-12-23T02:26:57.126Z,12.88
2017-12-23T02:29:25.398Z,16.16
2017-12-23T02:31:53.674Z,13.50
2017-12-23T02:34:27.752Z,15.22
2017-12-23T02:36:56.035Z,14.60
2017-12-23T02:39:24.301Z,15.22
2017-12-23T02:41:52.585Z,15.94
2017-12-23T02:44:20.876Z,17.34
2017-12-23T02:46:49.136Z,16.82
2017-12-23T02:49:17.406Z,17.64
2017-12-23T02:51:45.649Z,16.14
2017-12-23T02:54:13.924Z,16.74
2017-12-23T02:56:42.161Z,16.90
2017-12-23T02:59:10.420Z,15.90
2017-12-23T03:01:38.698Z,15.96
2017-12-23T03:04:06.945Z,15.36
2017-12-23T03:06:35.231Z,13.60
2017-12-23T03:09:03.478Z,14.82
2017-12-23T03:11:32.219Z,14.04
2017-12-23T03:14:00.564Z,15.12
2017-12-23T03:16:28.780Z,14.20
2017-12-23T03:18:57.066Z,13.68
2017-12-23T03:21:25.312Z,12.68
2017-12-23T03:23:53.572Z,11.98
2017-12-23T03:26:21.853Z,13.98
2017-12-23T03:28:50.102Z,13.90
2017-12-23T03:31:18.393Z,13.62
2017-12-23T03:33:46.650Z,15.64
2017-12-23T03:36:14.913Z,13.96
2017-12-23T03:38:43.206Z,14.24
2017-12-23T03:41:11.459Z,14.96
2017-12-23T03:43:39.746Z,16.18
2017-12-23T03:46:08.009Z,15.32
2017-12-23T03:48:36.272Z,15.64
2017-12-23T03:51:04.542Z,16.92
2017-12-23T03:53:33.316Z,17.90
2017-12-23T03:56:02.574Z,17.10
2017-12-23T03:58:30.817Z,16.64
2017-12-23T04:00:59.098Z,16.58
2017-12-23T04:03:27.385Z,17.68
2017-12-23T04:05:55.667Z,17.02
2017-12-23T04:08:23.944Z,15.20
2017-12-23T04:10:52.229Z,18.26
2017-12-23T04:13:20.511Z,16.28
2017-12-23T04:15:48.757Z,17.72
2017-12-23T04:18:17.044Z,18.48
2017-12-23T04:20:45.337Z,19.30
2017-12-23T04:23:13.586Z,17.98
2017-12-23T04:25:41.826Z,17.18
2017-12-23T04:28:10.102Z,19.86
2017-12-23T04:30:38.363Z,19.58
2017-12-23T04:33:06.635Z,18.60
2017-12-23T04:35:34.891Z,18.28
2017-12-23T04:38:03.795Z,20.68
2017-12-23T04:40:32.902Z,21.04
2017-12-23T04:43:01.803Z,22.34
2017-12-23T04:45:30.060Z,19.46
2017-12-23T04:47:58.330Z,21.86
2017-12-23T04:50:28.607Z,22.36
2017-12-23T04:52:56.864Z,21.80
2017-12-23T04:55:25.106Z,22.78
2017-12-23T04:57:53.385Z,24.28
2017-12-23T05:00:21.628Z,24.48
2017-12-23T05:02:49.902Z,23.32
2017-12-23T05:05:18.142Z,23.44
2017-12-23T05:07:46.434Z,24.32
2017-12-23T05:10:15.610Z,26.06
2017-12-23T05:12:43.864Z,25.18
2017-12-23T05:15:12.144Z,22.16
2017-12-23T05:17:40.381Z,26.78
2017-12-23T05:20:08.676Z,25.88
2017-12-23T05:22:36.927Z,27.36
2017-12-23T05:25:05.184Z,27.84
2017-12-23T05:27:33.468Z,27.62
2017-12-23T05:30:03.776Z,27.92
2017-12-23T05:32:32.956Z,28.70
2017-12-23T05:35:02.019Z,25.48
2017-12-23T05:37:30.266Z,29.14
2017-12-23T05:39:58.553Z,24.46
2017-12-23T05:42:26.856Z,24.50
2017-12-23T05:44:55.116Z,26.04
2017-12-23T05:47:23.358Z,26.60
2017-12-23T05:49:51.657Z,28.60
2017-12-23T05:52:19.915Z,24.60
2017-12-23T05:54:48.178Z,26.18
2017-12-23T05:57:16.463Z,27.66
2017-12-23T05:59:44.752Z,24.98
2017-12-23T06:02:13.041Z,27.16
2017-12-23T06:04:41.297Z,27.92
2017-12-23T06:07:09.578Z,28.68
2017-12-23T06:09:37.868Z,26.70
2017-12-23T06:12:06.110Z,25.16
2017-12-23T06:14:33.617Z,24.26
2017-12-23T06:17:03.354Z,26.40
2017-12-23T06:19:32.891Z,24.74
2017-12-23T06:22:01.864Z,26.10
2017-12-23T06:24:30.153Z,25.28
2017-12-23T06:26:58.393Z,24.10
2017-12-23T06:29:26.652Z,24.78
2017-12-23T06:31:54.925Z,23.22
2017-12-23T06:34:23.188Z,22.28
2017-12-23T06:36:51.481Z,23.40
2017-12-23T06:39:19.746Z,22.96
2017-12-23T06:41:47.989Z,21.18
2017-12-23T06:44:16.280Z,23.48
2017-12-23T06:46:44.544Z,21.32
2017-12-23T06:49:12.832Z,22.78
2017-12-23T06:51:41.069Z,23.28
2017-12-23T06:54:09.377Z,23.60
2017-12-23T06:56:37.680Z,23.48
2017-12-23T06:59:05.937Z,23.50
2017-12-23T07:01:34.232Z,22.86
2017-12-23T07:04:03.520Z,22.14
2017-12-23T07:06:33.156Z,22.62
2017-12-23T07:09:02.051Z,24.98
2017-12-23T07:11:30.310Z,28.96
2017-12-23T07:13:58.595Z,24.24
2017-12-23T07:16:26.834Z,27.18
2017-12-23T07:18:55.110Z,26.14
2017-12-23T07:21:23.376Z,27.56
2017-12-23T07:23:51.664Z,28.84
2017-12-23T07:26:19.915Z,28.36
2017-12-23T07:28:47.389Z,29.96
2017-12-23T07:31:15.672Z,29.36
2017-12-23T07:33:43.962Z,30.16
2017-12-23T07:36:12.217Z,30.20
2017-12-23T07:38:40.477Z,31.28
2017-12-23T07:41:08.760Z,31.74
2017-12-23T07:43:37.024Z,33.88
2017-12-23T07:46:05.302Z,33.46
2017-12-23T07:48:33.545Z,35.74
2017-12-23T07:51:03.035Z,35.10
2017-12-23T07:53:31.751Z,35.44
2017-12-23T07:56:00.056Z,36.86
2017-12-23T07:58:28.322Z,38.66
2017-12-23T08:00:56.577Z,39.00
2017-12-23T08:03:24.853Z,39.76
2017-12-23T08:05:53.093Z,40.50
2017-12-23T08:08:21.388Z,41.48
2017-12-23T08:10:50.224Z,42.40
2017-12-23T08:13:18.485Z,43.00
2017-12-23T08:15:46.765Z,39.64
2017-12-23T08:18:15.039Z,42.48
2017-12-23T08:20:43.319Z,47.08
2017-12-23T08:23:11.603Z,39.40
2017-12-23T08:25:39.851Z,42.60
2017-12-23T08:28:08.118Z,39.38
2017-12-23T08:30:36.406Z,38.96
2017-12-23T08:33:04.674Z,38.34
2017-12-23T08:35:34.202Z,41.72
2017-12-23T08:38:03.024Z,36.76
2017-12-23T08:40:32.063Z,37.08
2017-12-23T08:43:00.315Z,34.52
2017-12-23T08:45:28.555Z,34.76
2017-12-23T08:47:56.844Z,31.54
2017-12-23T08:50:25.100Z,32.48
2017-12-23T08:52:53.391Z,31.68
2017-12-23T08:55:21.630Z,31.36
2017-12-23T08:57:49.883Z,30.72
2017-12-23T09:00:18.178Z,32.18
2017-12-23T09:02:46.426Z,30.74
2017-12-23T09:05:14.703Z,34.02
2017-12-23T09:07:42.986Z,36.34
2017-12-23T09:10:11.260Z,33.44
2017-12-23T09:12:39.508Z,32.56
2017-12-23T09:15:07.804Z,31.28
2017-12-23T09:17:36.061Z,30.20
2017-12-23T09:20:03.581Z,29.40
2017-12-23T09:22:33.280Z,28.90
2017-12-23T09:25:02.714Z,28.04
2017-12-23T09:27:30.995Z,28.08
2017-12-23T09:29:59.244Z,28.10
2017-12-23T09:32:27.540Z,28.00
2017-12-23T09:34:55.794Z,28.86
2017-12-23T09:37:24.065Z,27.96
2017-12-23T09:39:52.328Z,25.64
2017-12-23T09:42:20.624Z,27.64
2017-12-23T09:44:48.870Z,28.62
2017-12-23T09:47:17.136Z,27.28
2017-12-23T09:49:45.409Z,29.04
2017-12-23T09:52:13.699Z,27.18
2017-12-23T09:54:41.941Z,27.92
2017-12-23T09:57:10.219Z,27.74
2017-12-23T09:59:38.498Z,29.96
2017-12-23T10:02:06.752Z,28.74
2017-12-23T10:04:34.992Z,27.08
2017-12-23T10:07:04.693Z,27.98
2017-12-23T10:09:34.340Z,24.58
2017-12-23T10:12:03.430Z,27.46
2017-12-23T10:14:32.723Z,23.76
2017-12-23T10:17:01.010Z,27.34
2017-12-23T10:19:29.290Z,26.82
2017-12-23T10:21:57.569Z,26.62
2017-12-23T10:24:26.795Z,27.04
2017-12-23T10:26:55.056Z,23.94
2017-12-23T10:29:25.296Z,24.92
2017-12-23T10:31:53.681Z,24.36
2017-12-23T10:34:22.897Z,24.58
2017-12-23T10:36:51.151Z,24.70
2017-12-23T10:39:19.440Z,21.70
2017-12-23T10:41:47.701Z,23.04
2017-12-23T10:44:17.967Z,20.94
2017-12-23T10:46:46.206Z,23.46
2017-12-23T10:49:16.403Z,21.68
2017-12-23T10:51:44.680Z,23.04
2017-12-23T10:54:12.920Z,23.80
2017-12-23T10:56:41.208Z,22.68
2017-12-23T10:59:10.429Z,22.46
2017-12-23T11:01:38.696Z,24.38
2017-12-23T11:04:07.964Z,23.26
2017-12-23T11:06:36.252Z,23.70
2017-12-23T11:09:04.548Z,21.56
2017-12-23T11:11:33.334Z,21.68
2017-12-23T11:14:03.252Z,19.32
2017-12-23T11:16:32.199Z,20.18
2017-12-23T11:19:02.564Z,19.64
2017-12-23T11:21:30.854Z,16.38
2017-12-23T11:23:59.112Z,17.68
2017-12-23T11:26:27.368Z,18.80
2017-12-23T11:28:55.641Z,17.82
2017-12-23T11:31:23.941Z,16.94
2017-12-23T11:33:53.138Z,15.92
2017-12-23T11:36:21.401Z,16.88
2017-12-23T11:38:50.619Z,19.36
2017-12-23T11:41:18.866Z,16.30
2017-12-23T11:43:47.110Z,19.44
2017-12-23T11:46:15.405Z,17.60
2017-12-23T11:48:44.662Z,21.64
2017-12-23T11:51:12.952Z,20.68
2017-12-23T11:53:41.206Z,20.00
2017-12-23T11:56:09.480Z,20.58
2017-12-23T11:58:37.755Z,20.84
2017-12-23T12:01:06.021Z,20.32
2017-12-23T12:03:34.806Z,19.40
2017-12-23T12:06:03.850Z,19.52
2017-12-23T12:08:32.675Z,21.06
2017-12-23T12:11:00.971Z,22.10
2017-12-23T12:13:29.205Z,21.00
2017-12-23T12:15:58.460Z,20.62
2017-12-23T12:18:26.729Z,21.92
2017-12-23T12:20:56.047Z,24.56
2017-12-23T12:23:24.330Z,22.06
2017-12-23T12:25:53.586Z,23.46
2017-12-23T12:28:21.848Z,22.02
2017-12-23T12:30:52.188Z,21.70
2017-12-23T12:33:20.433Z,20.98
2017-12-23T12:35:49.730Z,20.74
2017-12-23T12:38:17.985Z,22.08
2017-12-23T12:40:46.230Z,21.60
2017-12-23T12:43:14.529Z,22.24
2017-12-23T12:45:44.857Z,24.30
2017-12-23T12:48:13.156Z,23.24
2017-12-23T12:50:41.408Z,22.40
2017-12-23T12:53:09.664Z,22.64
2017-12-23T12:55:37.952Z,24.98
2017-12-23T12:58:06.207Z,22.72
2017-12-23T13:00:33.926Z,23.38
2017-12-23T13:03:02.579Z,23.26
2017-12-23T13:05:32.829Z,24.82
2017-12-23T13:08:02.399Z,25.28
2017-12-23T13:10:33.818Z,23.14
2017-12-23T13:13:02.611Z,24.20
2017-12-23T13:15:32.797Z,25.96
2017-12-23T13:18:01.038Z,24.90
2017-12-23T13:20:29.393Z,23.52
2017-12-23T13:22:57.657Z,24.10
2017-12-23T13:25:25.986Z,24.80
2017-12-23T13:27:54.256Z,27.30
2017-12-23T13:30:22.520Z,25.64
2017-12-23T13:32:50.793Z,28.02
2017-12-23T13:35:21.054Z,25.22
2017-12-23T13:37:49.318Z,26.18
2017-12-23T13:40:17.615Z,30.86
2017-12-23T13:42:45.894Z,28.46
2017-12-23T13:45:14.136Z,28.54
2017-12-23T13:47:41.643Z,28.98
2017-12-23T13:50:09.876Z,28.12
2017-12-23T13:52:39.202Z,32.30
2017-12-23T13:55:07.464Z,29.88
2017-12-23T13:57:36.750Z,29.66
2017-12-23T14:00:05.040Z,30.10
2017-12-23T14:02:34.845Z,31.18
2017-12-23T14:05:03.860Z,26.92
2017-12-23T14:07:32.658Z,28.72
2017-12-23T14:10:00.946Z,29.96
2017-12-23T14:12:29.199Z,26.80
2017-12-23T14:14:57.520Z,25.36
2017-12-23T14:17:25.845Z,27.32
2017-12-23T14:19:54.094Z,26.36
2017-12-23T14:22:22.343Z,26.68
2017-12-23T14:24:50.608Z,27.90
2017-12-23T14:27:18.860Z,27.22
2017-12-23T14:29:47.128Z,27.94
2017-12-23T14:32:15.464Z,26.38
2017-12-23T14:34:43.784Z,26.18
2017-12-23T14:37:11.985Z,24.70
2017-12-23T14:39:40.244Z,25.06
2017-12-23T14:42:09.540Z,24.02
2017-12-23T14:44:37.843Z,23.96
2017-12-23T14:47:06.102Z,23.26
2017-12-23T14:49:34.354Z,20.90
2017-12-23T14:52:03.326Z,22.04
2017-12-23T14:54:32.268Z,22.04
2017-12-23T14:57:00.501Z,18.94
2017-12-23T14:59:28.793Z,20.92
2017-12-23T15:01:57.052Z,20.70
2017-12-23T15:04:25.338Z,19.88
2017-12-23T15:06:53.593Z,20.88
2017-12-23T15:09:21.119Z,17.42
2017-12-23T15:11:49.436Z,18.08
2017-12-23T15:14:17.688Z,18.36
2017-12-23T15:16:45.980Z,21.62
2017-12-23T15:19:14.253Z,19.96
2017-12-23T15:21:42.507Z,18.86
2017-12-23T15:24:10.750Z,19.70
2017-12-23T15:26:39.048Z,18.88
2017-12-23T15:29:07.308Z,18.80
2017-12-23T15:31:35.567Z,20.38
2017-12-23T15:34:03.837Z,18.22
2017-12-23T15:36:33.032Z,18.70
2017-12-23T15:39:01.309Z,17.78
2017-12-23T15:41:29.642Z,19.60
2017-12-23T15:43:57.160Z,17.20
2017-12-23T15:46:25.474Z,17.14
2017-12-23T15:48:52.946Z,17.78
2017-12-23T15:51:21.224Z,16.42
2017-12-23T15:53:49.493Z,15.30
2017-12-23T15:56:17.780Z,17.06
2017-12-23T15:58:46.069Z,15.42
2017-12-23T16:01:14.358Z,17.24
2017-12-23T16:03:42.663Z,16.36
2017-12-23T16:06:10.951Z,15.84
2017-12-23T16:08:39.235Z,15.18
2017-12-23T16:11:07.510Z,16.44
2017-12-23T16:13:35.795Z,14.94
2017-12-23T16:16:04.070Z,18.02
2017-12-23T16:18:32.209Z,16.50
2017-12-23T16:21:00.494Z,17.64
2017-12-23T16:23:28.738Z,16.88
2017-12-23T16:25:56.996Z,17.44
2017-12-23T16:28:25.324Z,17.70
2017-12-23T16:30:53.557Z,17.34
2017-12-23T16:33:21.840Z,17.58
2017-12-23T16:35:50.114Z,15.94
2017-12-23T16:38:18.362Z,16.78
2017-12-23T16:40:46.648Z,16.66
2017-12-23T16:43:14.935Z,15.58
2017-12-23T16:45:43.222Z,17.74
2017-12-23T16:48:11.513Z,17.28
2017-12-23T16:50:39.850Z,16.52
2017-12-23T16:53:08.173Z,15.96
2017-12-23T16:55:36.441Z,18.52
2017-12-23T16:58:04.708Z,17.96
2017-12-23T17:00:34.140Z,19.22
2017-12-23T17:03:02.378Z,19.78
2017-12-23T17:05:30.642Z,17.44
2017-12-23T17:07:58.918Z,19.54
2017-12-23T17:10:27.212Z,17.60
2017-12-23T17:12:55.523Z,17.52
2017-12-23T17:15:23.825Z,17.50
2017-12-23T17:17:51.426Z,18.64
2017-12-23T17:20:19.720Z,18.16
2017-12-23T17:22:47.996Z,19.92
2017-12-23T17:25:16.308Z,19.32
2017-12-23T17:27:44.558Z,17.58
2017-12-23T17:30:23.926Z,18.22
2017-12-23T17:32:52.225Z,18.36
2017-12-23T17:35:20.507Z,18.38
2017-12-23T17:37:48.759Z,21.12
2017-12-23T17:40:17.067Z,18.82
2017-12-23T17:42:45.350Z,18.32
2017-12-23T17:45:13.602Z,18.32
2017-12-23T17:47:41.078Z,20.36
2017-12-23T17:50:09.406Z,19.04
2017-12-23T17:52:37.688Z,19.48
2017-12-23T17:55:06.039Z,18.46
2017-12-23T17:57:34.286Z,20.10
2017-12-23T18:00:03.229Z,20.48
2017-12-23T18:02:32.563Z,19.04
2017-12-23T18:05:00.875Z,19.24
2017-12-23T18:07:29.197Z,20.08
2017-12-23T18:09:57.496Z,19.30
2017-12-23T18:12:25.832Z,20.72
2017-12-23T18:14:54.120Z,19.34
2017-12-23T18:17:21.690Z,19.82
2017-12-23T18:19:49.952Z,22.24
2017-12-23T18:22:18.253Z,22.26
2017-12-23T18:24:46.500Z,18.02
2017-12-23T18:27:14.787Z,18.98
2017-12-23T18:29:43.114Z,20.06
2017-12-23T18:32:11.424Z,19.28
2017-12-23T18:34:39.732Z,19.58
2017-12-23T18:37:08.043Z,18.50
2017-12-23T18:39:36.340Z,20.30
2017-12-23T18:42:04.679Z,19.42
2017-12-23T18:44:33.745Z,20.80
2017-12-23T18:47:02.995Z,19.92
2017-12-23T18:49:31.833Z,17.64
2017-12-23T18:52:00.143Z,19.72
2017-12-23T18:54:28.503Z,18.76
2017-12-23T18:56:56.803Z,19.50
2017-12-23T18:59:25.114Z,20.36
2017-12-23T19:01:53.444Z,19.66
2017-12-23T19:04:21.708Z,20.08
2017-12-23T19:06:50.022Z,20.04
2017-12-23T19:09:18.345Z,20.56
2017-12-23T19:11:46.597Z,21.30
2017-12-23T19:14:14.937Z,20.46
2017-12-23T19:16:54.042Z,20.14
2017-12-23T19:19:22.387Z,20.84
2017-12-23T19:21:50.688Z,22.28
2017-12-23T19:24:19.016Z,20.86
2017-12-23T19:26:47.346Z,20.70
2017-12-23T19:29:15.639Z,21.84
2017-12-23T19:31:43.972Z,19.82
2017-12-23T19:34:12.288Z,20.90
2017-12-23T19:36:40.599Z,19.92
2017-12-23T19:39:08.945Z,21.90
2017-12-23T19:41:37.250Z,21.26
2017-12-23T19:44:05.579Z,20.56
2017-12-23T19:46:33.863Z,20.20
2017-12-23T19:49:03.170Z,19.02
2017-12-23T19:51:32.628Z,18.68
2017-12-23T19:54:00.916Z,17.78
2017-12-23T19:56:29.226Z,22.12
2017-12-23T19:58:57.513Z,17.82
2017-12-23T20:01:25.801Z,17.40
2017-12-23T20:03:54.097Z,16.30
2017-12-23T20:06:21.682Z,14.68
2017-12-23T20:08:49.994Z,15.94
2017-12-23T20:11:18.303Z,15.38
2017-12-23T20:13:46.647Z,15.26
2017-12-23T20:16:15.011Z,16.00
2017-12-23T20:18:43.320Z,18.52
2017-12-23T20:21:11.624Z,17.42
2017-12-23T20:23:39.962Z,16.86
2017-12-23T20:26:07.509Z,16.08
2017-12-23T20:28:35.845Z,17.00
2017-12-23T20:31:04.178Z,17.42
2017-12-23T20:33:33.606Z,15.44
2017-12-23T20:36:03.226Z,16.42
2017-12-23T20:38:30.723Z,16.14
2017-12-23T20:40:59.071Z,15.62
2017-12-23T20:43:27.402Z,16.36
2017-12-23T20:45:55.705Z,16.36
2017-12-23T20:48:24.044Z,16.28
2017-12-23T20:50:52.286Z,17.30
2017-12-23T20:53:20.624Z,17.56
2017-12-23T20:55:48.935Z,17.88
2017-12-23T20:58:17.234Z,17.40
2017-12-23T21:00:45.561Z,19.30
2017-12-23T21:03:13.889Z,18.20
2017-12-23T21:05:42.203Z,19.86
2017-12-23T21:08:10.494Z,18.42
2017-12-23T21:10:38.792Z,20.44
2017-12-23T21:13:07.088Z,20.62
2017-12-23T21:15:35.478Z,24.74
2017-12-23T21:18:03.982Z,19.90
2017-12-23T21:20:32.272Z,21.46
2017-12-23T21:23:00.603Z,21.84
2017-12-23T21:25:28.914Z,20.90
2017-12-23T21:27:57.241Z,21.06
2017-12-23T21:30:25.582Z,19.90
2017-12-23T21:32:53.885Z,21.88
2017-12-23T21:35:22.184Z,20.58
2017-12-23T21:37:50.521Z,20.88
2017-12-23T21:40:18.825Z,20.18
2017-12-23T21:42:47.111Z,19.30
2017-12-23T21:45:15.441Z,18.86
2017-12-23T21:47:43.752Z,19.44
2017-12-23T21:50:12.083Z,18.76
2017-12-23T21:52:40.386Z,19.26
2017-12-23T21:55:08.723Z,19.62
2017-12-23T21:57:37.024Z,19.40
2017-12-23T22:00:05.364Z,18.28
2017-12-23T22:02:34.041Z,18.16
2017-12-23T22:05:02.348Z,16.92
2017-12-23T22:07:30.692Z,17.96
2017-12-23T22:09:58.986Z,18.42
2017-12-23T22:12:27.313Z,17.82
2017-12-23T22:14:55.651Z,17.76
2017-12-23T22:17:23.949Z,16.36
2017-12-23T22:19:51.521Z,16.26
2017-12-23T22:22:19.874Z,15.64
2017-12-23T22:24:48.069Z,14.80
2017-12-23T22:27:16.405Z,15.24
2017-12-23T22:29:44.701Z,14.72
2017-12-23T22:32:12.988Z,13.88
2017-12-23T22:34:41.310Z,13.90
2017-12-23T22:37:09.601Z,13.36
2017-12-23T22:39:37.920Z,12.20
2017-12-23T22:42:06.204Z,13.28
2017-12-23T22:44:34.519Z,13.12
2017-12-23T22:47:03.441Z,12.58
2017-12-23T22:49:32.246Z,14.24
2017-12-23T22:52:00.547Z,12.84
2017-12-23T22:54:28.874Z,12.20
2017-12-23T22:56:57.223Z,12.80
2017-12-23T22:59:25.526Z,13.94
2017-12-23T23:01:53.830Z,13.26
2017-12-23T23:04:22.164Z,14.22
2017-12-23T23:06:50.493Z,14.12
2017-12-23T23:09:18.789Z,14.34
2017-12-23T23:11:47.095Z,12.66
2017-12-23T23:14:15.397Z,13.52
2017-12-23T23:16:43.730Z,11.08
2017-12-23T23:19:12.060Z,14.04
2017-12-23T23:21:40.376Z,14.04
2017-12-23T23:24:08.673Z,14.66
2017-12-23T23:26:36.964Z,13.74
2017-12-23T23:29:04.528Z,16.50
2017-12-23T23:31:33.639Z,15.64
2017-12-23T23:34:02.566Z,15.26
2017-12-23T23:36:30.842Z,15.38
2017-12-23T23:38:59.173Z,13.12
2017-12-23T23:41:27.493Z,14.14
2017-12-23T23:43:55.742Z,14.92
2017-12-23T23:46:24.015Z,13.52
2017-12-23T23:48:52.249Z,13.72
2017-12-23T23:51:20.543Z,14.18
2017-12-23T23:53:48.023Z,14.38
2017-12-23T23:56:16.266Z,13.32
2017-12-23T23:58:44.552Z,12.64
